sensor_id;sensor_type;location;lat;lon;timestamp;temperature;humidity
76263;DHT22;65080;50.908;6.916;2023-02-24T00:01:53;9.60;77.40
76263;DHT22;65080;50.908;6.916;2023-02-24T00:04:27;9.50;77.60
76263;DHT22;65080;50.908;6.916;2023-02-24T00:06:56;9.50;77.70
76263;DHT22;65080;50.908;6.916;2023-02-24T00:09:27;9.50;77.80
76263;DHT22;65080;50.908;6.916;2023-02-24T00:11:57;9.50;78.00
76263;DHT22;65080;50.908;6.916;2023-02-24T00:14:28;9.50;77.80
76263;DHT22;65080;50.908;6.916;2023-02-24T00:16:59;9.50;77.80
76263;DHT22;65080;50.908;6.916;2023-02-24T00:19:29;9.40;77.90
76263;DHT22;65080;50.908;6.916;2023-02-24T00:21:59;9.40;78.00
76263;DHT22;65080;50.908;6.916;2023-02-24T00:24:28;9.40;78.10
76263;DHT22;65080;50.908;6.916;2023-02-24T00:26:58;9.30;78.10
76263;DHT22;65080;50.908;6.916;2023-02-24T00:29:28;9.30;78.20
76263;DHT22;65080;50.908;6.916;2023-02-24T00:31:59;9.20;78.00
76263;DHT22;65080;50.908;6.916;2023-02-24T00:34:35;9.10;77.90
76263;DHT22;65080;50.908;6.916;2023-02-24T00:37:04;9.20;78.10
76263;DHT22;65080;50.908;6.916;2023-02-24T00:39:34;9.10;77.90
76263;DHT22;65080;50.908;6.916;2023-02-24T00:42:04;9.10;77.90
76263;DHT22;65080;50.908;6.916;2023-02-24T00:44:34;9.10;77.70
76263;DHT22;65080;50.908;6.916;2023-02-24T00:47:07;9.10;77.60
76263;DHT22;65080;50.908;6.916;2023-02-24T00:49:37;9.10;77.50
76263;DHT22;65080;50.908;6.916;2023-02-24T00:52:09;9.00;77.00
76263;DHT22;65080;50.908;6.916;2023-02-24T00:54:40;9.00;76.60
76263;DHT22;65080;50.908;6.916;2023-02-24T00:57:09;9.00;76.50
76263;DHT22;65080;50.908;6.916;2023-02-24T00:59:38;8.90;76.40
76263;DHT22;65080;50.908;6.916;2023-02-24T01:02:07;8.90;76.30
76263;DHT22;65080;50.908;6.916;2023-02-24T01:04:37;8.90;76.30
76263;DHT22;65080;50.908;6.916;2023-02-24T01:07:06;8.90;76.00
76263;DHT22;65080;50.908;6.916;2023-02-24T01:09:38;8.90;75.70
76263;DHT22;65080;50.908;6.916;2023-02-24T01:12:08;8.90;75.60
76263;DHT22;65080;50.908;6.916;2023-02-24T01:14:54;8.90;75.60
76263;DHT22;65080;50.908;6.916;2023-02-24T01:17:24;8.80;75.30
76263;DHT22;65080;50.908;6.916;2023-02-24T01:19:52;8.90;75.30
76263;DHT22;65080;50.908;6.916;2023-02-24T01:22:26;8.80;75.10
76263;DHT22;65080;50.908;6.916;2023-02-24T01:24:54;8.80;75.10
76263;DHT22;65080;50.908;6.916;2023-02-24T01:27:23;8.80;75.10
76263;DHT22;65080;50.908;6.916;2023-02-24T01:29:51;8.80;75.20
76263;DHT22;65080;50.908;6.916;2023-02-24T01:32:20;8.80;75.10
76263;DHT22;65080;50.908;6.916;2023-02-24T01:34:51;8.80;75.10
76263;DHT22;65080;50.908;6.916;2023-02-24T01:37:20;8.80;75.10
76263;DHT22;65080;50.908;6.916;2023-02-24T01:39:50;8.80;75.20
76263;DHT22;65080;50.908;6.916;2023-02-24T01:42:20;8.80;75.20
76263;DHT22;65080;50.908;6.916;2023-02-24T01:45:11;8.80;75.20
76263;DHT22;65080;50.908;6.916;2023-02-24T01:47:41;8.80;75.10
76263;DHT22;65080;50.908;6.916;2023-02-24T01:50:12;8.80;75.00
76263;DHT22;65080;50.908;6.916;2023-02-24T01:52:44;8.80;74.80
76263;DHT22;65080;50.908;6.916;2023-02-24T01:55:17;8.80;74.80
76263;DHT22;65080;50.908;6.916;2023-02-24T01:57:49;8.70;74.80
76263;DHT22;65080;50.908;6.916;2023-02-24T02:00:19;8.70;75.00
76263;DHT22;65080;50.908;6.916;2023-02-24T02:03:08;8.70;75.00
76263;DHT22;65080;50.908;6.916;2023-02-24T02:05:40;8.70;75.00
76263;DHT22;65080;50.908;6.916;2023-02-24T02:08:11;8.70;74.90
76263;DHT22;65080;50.908;6.916;2023-02-24T02:10:41;8.70;75.20
76263;DHT22;65080;50.908;6.916;2023-02-24T02:13:13;8.60;75.20
76263;DHT22;65080;50.908;6.916;2023-02-24T02:15:50;8.60;75.10
76263;DHT22;65080;50.908;6.916;2023-02-24T02:18:31;8.60;75.20
76263;DHT22;65080;50.908;6.916;2023-02-24T02:21:26;8.60;75.10
76263;DHT22;65080;50.908;6.916;2023-02-24T02:24:16;8.60;75.20
76263;DHT22;65080;50.908;6.916;2023-02-24T02:30:17;8.50;75.10
76263;DHT22;65080;50.908;6.916;2023-02-24T02:33:12;8.50;75.00
76263;DHT22;65080;50.908;6.916;2023-02-24T02:35:54;8.50;74.90
76263;DHT22;65080;50.908;6.916;2023-02-24T02:38:31;8.50;74.90
76263;DHT22;65080;50.908;6.916;2023-02-24T02:41:06;8.50;74.90
76263;DHT22;65080;50.908;6.916;2023-02-24T02:43:40;8.50;74.80
76263;DHT22;65080;50.908;6.916;2023-02-24T02:46:13;8.40;74.50
76263;DHT22;65080;50.908;6.916;2023-02-24T02:48:48;8.40;74.80
76263;DHT22;65080;50.908;6.916;2023-02-24T02:51:23;8.40;74.80
76263;DHT22;65080;50.908;6.916;2023-02-24T02:53:58;8.40;74.80
76263;DHT22;65080;50.908;6.916;2023-02-24T02:56:31;8.40;74.70
76263;DHT22;65080;50.908;6.916;2023-02-24T02:59:04;8.40;74.60
76263;DHT22;65080;50.908;6.916;2023-02-24T03:01:36;8.30;74.50
76263;DHT22;65080;50.908;6.916;2023-02-24T03:04:09;8.30;74.50
76263;DHT22;65080;50.908;6.916;2023-02-24T03:06:43;8.20;74.40
76263;DHT22;65080;50.908;6.916;2023-02-24T03:09:18;8.20;74.40
76263;DHT22;65080;50.908;6.916;2023-02-24T03:11:51;8.20;74.60
76263;DHT22;65080;50.908;6.916;2023-02-24T03:14:23;8.20;74.60
76263;DHT22;65080;50.908;6.916;2023-02-24T03:16:53;8.10;74.50
76263;DHT22;65080;50.908;6.916;2023-02-24T03:19:26;8.10;74.60
76263;DHT22;65080;50.908;6.916;2023-02-24T03:22:02;8.10;74.60
76263;DHT22;65080;50.908;6.916;2023-02-24T03:24:33;8.10;74.60
76263;DHT22;65080;50.908;6.916;2023-02-24T03:27:08;8.10;74.60
76263;DHT22;65080;50.908;6.916;2023-02-24T03:29:43;8.10;75.20
76263;DHT22;65080;50.908;6.916;2023-02-24T03:32:19;8.10;74.40
76263;DHT22;65080;50.908;6.916;2023-02-24T03:34:54;8.10;74.20
76263;DHT22;65080;50.908;6.916;2023-02-24T03:37:25;7.90;74.00
76263;DHT22;65080;50.908;6.916;2023-02-24T03:39:57;7.90;74.10
76263;DHT22;65080;50.908;6.916;2023-02-24T03:42:29;7.90;74.40
76263;DHT22;65080;50.908;6.916;2023-02-24T03:44:59;7.80;74.40
76263;DHT22;65080;50.908;6.916;2023-02-24T03:47:27;7.90;74.60
76263;DHT22;65080;50.908;6.916;2023-02-24T03:49:56;7.90;74.60
76263;DHT22;65080;50.908;6.916;2023-02-24T03:52:33;7.90;74.30
76263;DHT22;65080;50.908;6.916;2023-02-24T03:55:16;7.90;74.30
76263;DHT22;65080;50.908;6.916;2023-02-24T03:57:56;7.90;74.40
76263;DHT22;65080;50.908;6.916;2023-02-24T04:00:31;7.90;74.50
76263;DHT22;65080;50.908;6.916;2023-02-24T04:03:14;7.90;74.60
76263;DHT22;65080;50.908;6.916;2023-02-24T04:05:50;7.90;74.60
76263;DHT22;65080;50.908;6.916;2023-02-24T04:08:25;7.90;74.60
76263;DHT22;65080;50.908;6.916;2023-02-24T04:11:00;7.90;74.40
76263;DHT22;65080;50.908;6.916;2023-02-24T04:13:34;7.80;74.30
76263;DHT22;65080;50.908;6.916;2023-02-24T04:16:09;7.80;75.20
76263;DHT22;65080;50.908;6.916;2023-02-24T04:18:46;7.80;74.60
76263;DHT22;65080;50.908;6.916;2023-02-24T04:21:16;7.70;75.00
76263;DHT22;65080;50.908;6.916;2023-02-24T04:23:48;7.80;74.50
76263;DHT22;65080;50.908;6.916;2023-02-24T04:26:17;7.70;74.40
76263;DHT22;65080;50.908;6.916;2023-02-24T04:28:46;7.70;74.50
76263;DHT22;65080;50.908;6.916;2023-02-24T04:31:16;7.70;74.40
76263;DHT22;65080;50.908;6.916;2023-02-24T04:33:47;7.70;74.30
76263;DHT22;65080;50.908;6.916;2023-02-24T04:36:17;7.70;74.20
76263;DHT22;65080;50.908;6.916;2023-02-24T04:38:47;7.70;74.10
76263;DHT22;65080;50.908;6.916;2023-02-24T04:41:15;7.70;74.00
76263;DHT22;65080;50.908;6.916;2023-02-24T04:43:48;7.60;73.90
76263;DHT22;65080;50.908;6.916;2023-02-24T04:46:17;7.60;74.00
76263;DHT22;65080;50.908;6.916;2023-02-24T04:48:45;7.60;74.00
76263;DHT22;65080;50.908;6.916;2023-02-24T04:51:13;7.60;73.70
76263;DHT22;65080;50.908;6.916;2023-02-24T04:53:42;7.50;73.50
76263;DHT22;65080;50.908;6.916;2023-02-24T04:56:12;7.50;73.60
76263;DHT22;65080;50.908;6.916;2023-02-24T04:58:40;7.40;73.70
76263;DHT22;65080;50.908;6.916;2023-02-24T05:01:10;7.40;73.50
76263;DHT22;65080;50.908;6.916;2023-02-24T05:03:38;7.40;73.50
76263;DHT22;65080;50.908;6.916;2023-02-24T05:06:13;7.40;73.60
76263;DHT22;65080;50.908;6.916;2023-02-24T05:08:42;7.30;73.50
76263;DHT22;65080;50.908;6.916;2023-02-24T05:11:14;7.40;73.50
76263;DHT22;65080;50.908;6.916;2023-02-24T05:13:43;7.40;73.50
76263;DHT22;65080;50.908;6.916;2023-02-24T05:16:15;7.40;73.50
76263;DHT22;65080;50.908;6.916;2023-02-24T05:18:43;7.40;73.30
76263;DHT22;65080;50.908;6.916;2023-02-24T05:21:14;7.30;73.10
76263;DHT22;65080;50.908;6.916;2023-02-24T05:24:00;7.30;73.30
76263;DHT22;65080;50.908;6.916;2023-02-24T05:26:35;7.30;73.30
76263;DHT22;65080;50.908;6.916;2023-02-24T05:29:05;7.30;73.30
76263;DHT22;65080;50.908;6.916;2023-02-24T05:31:34;7.30;73.20
76263;DHT22;65080;50.908;6.916;2023-02-24T05:34:05;7.30;73.10
76263;DHT22;65080;50.908;6.916;2023-02-24T05:36:36;7.30;73.00
76263;DHT22;65080;50.908;6.916;2023-02-24T05:39:07;7.30;72.80
76263;DHT22;65080;50.908;6.916;2023-02-24T05:41:41;7.30;72.50
76263;DHT22;65080;50.908;6.916;2023-02-24T05:44:11;7.20;72.30
76263;DHT22;65080;50.908;6.916;2023-02-24T05:46:43;7.20;72.20
76263;DHT22;65080;50.908;6.916;2023-02-24T05:49:13;7.10;72.20
76263;DHT22;65080;50.908;6.916;2023-02-24T05:51:43;7.20;72.30
76263;DHT22;65080;50.908;6.916;2023-02-24T05:54:21;7.10;72.10
76263;DHT22;65080;50.908;6.916;2023-02-24T05:56:51;7.10;72.20
76263;DHT22;65080;50.908;6.916;2023-02-24T05:59:19;7.10;72.20
76263;DHT22;65080;50.908;6.916;2023-02-24T06:01:49;7.10;72.10
76263;DHT22;65080;50.908;6.916;2023-02-24T06:04:19;7.20;72.10
76263;DHT22;65080;50.908;6.916;2023-02-24T06:06:54;7.20;71.80
76263;DHT22;65080;50.908;6.916;2023-02-24T06:09:22;7.10;71.70
76263;DHT22;65080;50.908;6.916;2023-02-24T06:11:51;7.10;71.60
76263;DHT22;65080;50.908;6.916;2023-02-24T06:14:20;7.20;71.70
76263;DHT22;65080;50.908;6.916;2023-02-24T06:16:48;7.20;71.70
76263;DHT22;65080;50.908;6.916;2023-02-24T06:19:17;7.20;71.60
76263;DHT22;65080;50.908;6.916;2023-02-24T06:21:46;7.20;71.60
76263;DHT22;65080;50.908;6.916;2023-02-24T06:24:15;7.20;71.50
76263;DHT22;65080;50.908;6.916;2023-02-24T06:26:44;7.20;71.20
76263;DHT22;65080;50.908;6.916;2023-02-24T06:29:16;7.10;71.00
76263;DHT22;65080;50.908;6.916;2023-02-24T06:31:45;7.10;70.90
76263;DHT22;65080;50.908;6.916;2023-02-24T06:34:14;7.20;71.00
76263;DHT22;65080;50.908;6.916;2023-02-24T06:36:44;7.10;70.90
76263;DHT22;65080;50.908;6.916;2023-02-24T06:39:13;7.00;70.70
76263;DHT22;65080;50.908;6.916;2023-02-24T06:41:41;7.00;70.60
76263;DHT22;65080;50.908;6.916;2023-02-24T06:44:09;7.00;70.60
76263;DHT22;65080;50.908;6.916;2023-02-24T06:46:39;7.00;70.60
76263;DHT22;65080;50.908;6.916;2023-02-24T06:49:08;7.00;70.50
76263;DHT22;65080;50.908;6.916;2023-02-24T06:51:38;7.00;70.20
76263;DHT22;65080;50.908;6.916;2023-02-24T06:54:07;6.90;69.90
76263;DHT22;65080;50.908;6.916;2023-02-24T06:56:35;6.90;69.80
76263;DHT22;65080;50.908;6.916;2023-02-24T06:59:05;6.80;69.60
76263;DHT22;65080;50.908;6.916;2023-02-24T07:01:39;6.80;69.70
76263;DHT22;65080;50.908;6.916;2023-02-24T07:04:11;6.80;69.70
76263;DHT22;65080;50.908;6.916;2023-02-24T07:06:48;6.80;69.70
76263;DHT22;65080;50.908;6.916;2023-02-24T07:09:20;6.80;69.60
76263;DHT22;65080;50.908;6.916;2023-02-24T07:11:50;6.80;69.50
76263;DHT22;65080;50.908;6.916;2023-02-24T07:14:20;6.80;69.50
76263;DHT22;65080;50.908;6.916;2023-02-24T07:16:50;6.90;69.60
76263;DHT22;65080;50.908;6.916;2023-02-24T07:19:22;6.90;69.50
76263;DHT22;65080;50.908;6.916;2023-02-24T07:21:54;7.00;69.60
76263;DHT22;65080;50.908;6.916;2023-02-24T07:24:28;7.00;69.40
76263;DHT22;65080;50.908;6.916;2023-02-24T07:27:04;7.00;69.20
76263;DHT22;65080;50.908;6.916;2023-02-24T07:29:34;7.10;69.00
76263;DHT22;65080;50.908;6.916;2023-02-24T07:32:06;7.00;68.70
76263;DHT22;65080;50.908;6.916;2023-02-24T07:34:36;7.00;68.90
76263;DHT22;65080;50.908;6.916;2023-02-24T07:37:06;7.00;69.00
76263;DHT22;65080;50.908;6.916;2023-02-24T07:39:35;7.00;69.10
76263;DHT22;65080;50.908;6.916;2023-02-24T07:42:08;7.10;69.10
76263;DHT22;65080;50.908;6.916;2023-02-24T07:44:38;7.10;69.00
76263;DHT22;65080;50.908;6.916;2023-02-24T07:47:07;7.10;69.00
76263;DHT22;65080;50.908;6.916;2023-02-24T07:49:36;7.20;69.00
76263;DHT22;65080;50.908;6.916;2023-02-24T07:52:06;7.20;68.80
76263;DHT22;65080;50.908;6.916;2023-02-24T07:54:37;7.10;68.50
76263;DHT22;65080;50.908;6.916;2023-02-24T07:57:06;7.10;68.40
76263;DHT22;65080;50.908;6.916;2023-02-24T07:59:39;7.20;68.50
76263;DHT22;65080;50.908;6.916;2023-02-24T08:02:12;7.20;68.50
76263;DHT22;65080;50.908;6.916;2023-02-24T08:04:40;7.20;68.40
76263;DHT22;65080;50.908;6.916;2023-02-24T08:07:15;7.20;68.10
76263;DHT22;65080;50.908;6.916;2023-02-24T08:09:49;7.20;67.90
76263;DHT22;65080;50.908;6.916;2023-02-24T08:12:38;7.30;68.00
76263;DHT22;65080;50.908;6.916;2023-02-24T08:15:09;7.30;67.90
76263;DHT22;65080;50.908;6.916;2023-02-24T08:17:45;7.30;67.70
76263;DHT22;65080;50.908;6.916;2023-02-24T08:20:14;7.30;67.70
76263;DHT22;65080;50.908;6.916;2023-02-24T08:22:56;7.40;67.90
76263;DHT22;65080;50.908;6.916;2023-02-24T08:25:26;7.40;67.70
76263;DHT22;65080;50.908;6.916;2023-02-24T08:28:05;7.40;67.60
76263;DHT22;65080;50.908;6.916;2023-02-24T08:30:38;7.40;67.40
76263;DHT22;65080;50.908;6.916;2023-02-24T08:33:17;7.50;67.40
76263;DHT22;65080;50.908;6.916;2023-02-24T08:35:50;7.50;67.30
76263;DHT22;65080;50.908;6.916;2023-02-24T08:38:20;7.50;67.20
76263;DHT22;65080;50.908;6.916;2023-02-24T08:40:52;7.40;66.90
76263;DHT22;65080;50.908;6.916;2023-02-24T08:43:25;7.40;66.70
76263;DHT22;65080;50.908;6.916;2023-02-24T08:46:03;7.40;66.80
76263;DHT22;65080;50.908;6.916;2023-02-24T08:48:39;7.40;66.80
76263;DHT22;65080;50.908;6.916;2023-02-24T08:51:11;7.50;66.90
76263;DHT22;65080;50.908;6.916;2023-02-24T08:53:41;7.40;66.70
76263;DHT22;65080;50.908;6.916;2023-02-24T08:56:11;7.40;66.60
76263;DHT22;65080;50.908;6.916;2023-02-24T08:58:42;7.40;66.40
76263;DHT22;65080;50.908;6.916;2023-02-24T09:01:17;7.30;66.40
76263;DHT22;65080;50.908;6.916;2023-02-24T09:03:49;7.30;66.60
76263;DHT22;65080;50.908;6.916;2023-02-24T09:06:19;7.20;66.60
76263;DHT22;65080;50.908;6.916;2023-02-24T09:08:53;7.20;66.80
76263;DHT22;65080;50.908;6.916;2023-02-24T09:11:44;7.20;66.90
76263;DHT22;65080;50.908;6.916;2023-02-24T09:14:14;7.30;66.90
76263;DHT22;65080;50.908;6.916;2023-02-24T09:16:54;7.40;66.80
76263;DHT22;65080;50.908;6.916;2023-02-24T09:19:34;7.40;66.70
76263;DHT22;65080;50.908;6.916;2023-02-24T09:22:24;7.40;66.50
76263;DHT22;65080;50.908;6.916;2023-02-24T09:25:02;7.50;66.50
76263;DHT22;65080;50.908;6.916;2023-02-24T09:27:49;7.50;66.30
76263;DHT22;65080;50.908;6.916;2023-02-24T09:30:25;7.50;66.10
76263;DHT22;65080;50.908;6.916;2023-02-24T09:33:11;7.60;66.10
76263;DHT22;65080;50.908;6.916;2023-02-24T09:35:54;7.60;65.90
76263;DHT22;65080;50.908;6.916;2023-02-24T09:38:29;7.60;65.50
76263;DHT22;65080;50.908;6.916;2023-02-24T09:41:37;7.60;65.10
76263;DHT22;65080;50.908;6.916;2023-02-24T09:44:26;7.50;64.50
76263;DHT22;65080;50.908;6.916;2023-02-24T09:47:03;7.60;64.30
76263;DHT22;65080;50.908;6.916;2023-02-24T09:49:46;7.60;64.00
76263;DHT22;65080;50.908;6.916;2023-02-24T09:52:17;7.50;63.40
76263;DHT22;65080;50.908;6.916;2023-02-24T09:54:48;7.60;63.10
76263;DHT22;65080;50.908;6.916;2023-02-24T09:57:39;7.60;63.00
76263;DHT22;65080;50.908;6.916;2023-02-24T10:00:31;7.70;63.10
76263;DHT22;65080;50.908;6.916;2023-02-24T10:03:07;7.80;62.90
76263;DHT22;65080;50.908;6.916;2023-02-24T10:05:52;7.80;62.50
76263;DHT22;65080;50.908;6.916;2023-02-24T10:08:31;7.80;62.20
76263;DHT22;65080;50.908;6.916;2023-02-24T10:11:00;7.90;62.10
76263;DHT22;65080;50.908;6.916;2023-02-24T10:13:36;7.80;61.80
76263;DHT22;65080;50.908;6.916;2023-02-24T10:16:08;7.90;62.00
76263;DHT22;65080;50.908;6.916;2023-02-24T10:18:42;7.90;61.70
76263;DHT22;65080;50.908;6.916;2023-02-24T10:21:19;7.80;61.50
76263;DHT22;65080;50.908;6.916;2023-02-24T10:24:07;7.80;61.20
76263;DHT22;65080;50.908;6.916;2023-02-24T10:26:44;7.80;61.00
76263;DHT22;65080;50.908;6.916;2023-02-24T10:29:41;7.80;61.20
76263;DHT22;65080;50.908;6.916;2023-02-24T10:32:18;7.80;61.20
76263;DHT22;65080;50.908;6.916;2023-02-24T10:34:50;7.70;60.90
76263;DHT22;65080;50.908;6.916;2023-02-24T10:37:21;7.70;60.90
76263;DHT22;65080;50.908;6.916;2023-02-24T10:39:58;7.70;61.00
76263;DHT22;65080;50.908;6.916;2023-02-24T10:42:37;7.70;61.00
76263;DHT22;65080;50.908;6.916;2023-02-24T10:45:14;7.70;60.80
76263;DHT22;65080;50.908;6.916;2023-02-24T10:47:49;7.80;60.90
76263;DHT22;65080;50.908;6.916;2023-02-24T10:50:24;7.80;60.50
76263;DHT22;65080;50.908;6.916;2023-02-24T10:53:00;7.70;60.40
76263;DHT22;65080;50.908;6.916;2023-02-24T10:56:04;7.70;60.30
76263;DHT22;65080;50.908;6.916;2023-02-24T10:59:01;7.60;60.40
76263;DHT22;65080;50.908;6.916;2023-02-24T11:01:43;7.60;60.30
76263;DHT22;65080;50.908;6.916;2023-02-24T11:04:21;7.70;60.20
76263;DHT22;65080;50.908;6.916;2023-02-24T11:07:03;7.60;59.70
76263;DHT22;65080;50.908;6.916;2023-02-24T11:09:37;7.60;59.70
76263;DHT22;65080;50.908;6.916;2023-02-24T11:12:22;7.60;59.70
76263;DHT22;65080;50.908;6.916;2023-02-24T11:15:16;7.60;59.70
76263;DHT22;65080;50.908;6.916;2023-02-24T11:18:04;7.60;59.50
76263;DHT22;65080;50.908;6.916;2023-02-24T11:20:36;7.50;59.40
76263;DHT22;65080;50.908;6.916;2023-02-24T11:23:18;7.50;59.40
76263;DHT22;65080;50.908;6.916;2023-02-24T11:25:48;7.50;59.50
76263;DHT22;65080;50.908;6.916;2023-02-24T11:28:31;7.50;59.40
76263;DHT22;65080;50.908;6.916;2023-02-24T11:31:12;7.40;59.20
76263;DHT22;65080;50.908;6.916;2023-02-24T11:33:47;7.50;59.40
76263;DHT22;65080;50.908;6.916;2023-02-24T11:36:25;7.40;59.40
76263;DHT22;65080;50.908;6.916;2023-02-24T11:39:05;7.50;59.40
76263;DHT22;65080;50.908;6.916;2023-02-24T11:41:50;7.40;59.30
76263;DHT22;65080;50.908;6.916;2023-02-24T11:44:24;7.40;59.40
76263;DHT22;65080;50.908;6.916;2023-02-24T11:46:58;7.40;59.50
76263;DHT22;65080;50.908;6.916;2023-02-24T11:49:30;7.40;59.50
76263;DHT22;65080;50.908;6.916;2023-02-24T11:52:01;7.30;59.60
76263;DHT22;65080;50.908;6.916;2023-02-24T11:54:36;7.20;59.70
76263;DHT22;65080;50.908;6.916;2023-02-24T11:57:12;7.20;60.00
76263;DHT22;65080;50.908;6.916;2023-02-24T11:59:46;7.10;60.00
76263;DHT22;65080;50.908;6.916;2023-02-24T12:02:22;7.00;60.30
76263;DHT22;65080;50.908;6.916;2023-02-24T12:05:02;6.90;60.30
76263;DHT22;65080;50.908;6.916;2023-02-24T12:07:35;6.80;60.60
76263;DHT22;65080;50.908;6.916;2023-02-24T12:10:12;6.70;60.80
76263;DHT22;65080;50.908;6.916;2023-02-24T12:12:48;6.60;61.10
76263;DHT22;65080;50.908;6.916;2023-02-24T12:15:24;6.50;61.40
76263;DHT22;65080;50.908;6.916;2023-02-24T12:17:58;6.40;61.70
76263;DHT22;65080;50.908;6.916;2023-02-24T12:20:33;6.30;62.00
76263;DHT22;65080;50.908;6.916;2023-02-24T12:23:12;6.30;62.50
76263;DHT22;65080;50.908;6.916;2023-02-24T12:25:56;6.30;62.70
76263;DHT22;65080;50.908;6.916;2023-02-24T12:28:44;6.30;62.90
76263;DHT22;65080;50.908;6.916;2023-02-24T12:31:24;6.30;62.90
76263;DHT22;65080;50.908;6.916;2023-02-24T12:34:04;6.30;63.10
76263;DHT22;65080;50.908;6.916;2023-02-24T12:36:50;6.30;63.40
76263;DHT22;65080;50.908;6.916;2023-02-24T12:39:20;6.20;63.40
76263;DHT22;65080;50.908;6.916;2023-02-24T12:41:58;6.30;63.80
76263;DHT22;65080;50.908;6.916;2023-02-24T12:44:37;6.20;63.80
76263;DHT22;65080;50.908;6.916;2023-02-24T12:47:12;6.20;64.10
76263;DHT22;65080;50.908;6.916;2023-02-24T12:50:03;6.20;64.20
76263;DHT22;65080;50.908;6.916;2023-02-24T12:52:39;6.20;64.50
76263;DHT22;65080;50.908;6.916;2023-02-24T12:55:14;6.20;64.60
76263;DHT22;65080;50.908;6.916;2023-02-24T12:57:54;6.30;65.00
76263;DHT22;65080;50.908;6.916;2023-02-24T13:00:29;6.30;65.20
76263;DHT22;65080;50.908;6.916;2023-02-24T13:03:07;6.40;65.30
76263;DHT22;65080;50.908;6.916;2023-02-24T13:05:43;6.50;65.50
76263;DHT22;65080;50.908;6.916;2023-02-24T13:08:20;6.60;65.60
76263;DHT22;65080;50.908;6.916;2023-02-24T13:10:57;6.60;65.60
76263;DHT22;65080;50.908;6.916;2023-02-24T13:13:32;6.60;65.60
76263;DHT22;65080;50.908;6.916;2023-02-24T13:16:01;6.60;65.80
76263;DHT22;65080;50.908;6.916;2023-02-24T13:18:33;6.60;66.30
76263;DHT22;65080;50.908;6.916;2023-02-24T13:21:04;6.50;66.50
76263;DHT22;65080;50.908;6.916;2023-02-24T13:23:33;6.50;66.80
76263;DHT22;65080;50.908;6.916;2023-02-24T13:26:02;6.50;67.20
76263;DHT22;65080;50.908;6.916;2023-02-24T13:28:32;6.50;67.80
76263;DHT22;65080;50.908;6.916;2023-02-24T13:31:04;6.50;68.00
76263;DHT22;65080;50.908;6.916;2023-02-24T13:33:37;6.40;68.30
76263;DHT22;65080;50.908;6.916;2023-02-24T13:36:13;6.30;68.50
76263;DHT22;65080;50.908;6.916;2023-02-24T13:38:43;6.30;69.00
76263;DHT22;65080;50.908;6.916;2023-02-24T13:41:35;6.30;69.50
76263;DHT22;65080;50.908;6.916;2023-02-24T13:44:25;6.30;70.20
76263;DHT22;65080;50.908;6.916;2023-02-24T13:47:07;6.30;70.30
76263;DHT22;65080;50.908;6.916;2023-02-24T13:49:51;6.30;70.70
76263;DHT22;65080;50.908;6.916;2023-02-24T13:52:34;6.40;71.00
76263;DHT22;65080;50.908;6.916;2023-02-24T13:55:25;6.40;71.00
76263;DHT22;65080;50.908;6.916;2023-02-24T13:58:08;6.30;71.10
76263;DHT22;65080;50.908;6.916;2023-02-24T14:00:55;6.30;71.40
76263;DHT22;65080;50.908;6.916;2023-02-24T14:03:27;6.30;71.70
76263;DHT22;65080;50.908;6.916;2023-02-24T14:05:58;6.30;72.00
76263;DHT22;65080;50.908;6.916;2023-02-24T14:08:37;6.30;72.20
76263;DHT22;65080;50.908;6.916;2023-02-24T14:11:11;6.30;72.60
76263;DHT22;65080;50.908;6.916;2023-02-24T14:13:44;6.30;73.10
76263;DHT22;65080;50.908;6.916;2023-02-24T14:16:16;6.30;72.90
76263;DHT22;65080;50.908;6.916;2023-02-24T14:18:52;6.30;73.30
76263;DHT22;65080;50.908;6.916;2023-02-24T14:21:23;6.40;73.50
76263;DHT22;65080;50.908;6.916;2023-02-24T14:23:56;6.50;73.70
76263;DHT22;65080;50.908;6.916;2023-02-24T14:26:25;6.50;73.70
76263;DHT22;65080;50.908;6.916;2023-02-24T14:28:57;6.50;73.70
76263;DHT22;65080;50.908;6.916;2023-02-24T14:31:27;6.50;74.00
76263;DHT22;65080;50.908;6.916;2023-02-24T14:33:59;6.60;74.10
76263;DHT22;65080;50.908;6.916;2023-02-24T14:36:32;6.60;74.00
76263;DHT22;65080;50.908;6.916;2023-02-24T14:39:07;6.70;74.00
76263;DHT22;65080;50.908;6.916;2023-02-24T14:41:35;6.70;74.00
76263;DHT22;65080;50.908;6.916;2023-02-24T14:44:16;6.70;73.90
76263;DHT22;65080;50.908;6.916;2023-02-24T14:46:46;6.70;73.90
76263;DHT22;65080;50.908;6.916;2023-02-24T14:49:18;6.70;74.10
76263;DHT22;65080;50.908;6.916;2023-02-24T14:51:51;6.70;74.20
76263;DHT22;65080;50.908;6.916;2023-02-24T14:54:29;6.70;74.20
76263;DHT22;65080;50.908;6.916;2023-02-24T14:57:00;6.70;74.20
76263;DHT22;65080;50.908;6.916;2023-02-24T14:59:31;6.70;74.20
76263;DHT22;65080;50.908;6.916;2023-02-24T15:02:01;6.70;74.20
76263;DHT22;65080;50.908;6.916;2023-02-24T15:04:33;6.70;74.40
76263;DHT22;65080;50.908;6.916;2023-02-24T15:07:06;6.70;74.30
76263;DHT22;65080;50.908;6.916;2023-02-24T15:09:41;6.70;74.40
76263;DHT22;65080;50.908;6.916;2023-02-24T15:12:12;6.60;74.30
76263;DHT22;65080;50.908;6.916;2023-02-24T15:14:50;6.70;74.30
76263;DHT22;65080;50.908;6.916;2023-02-24T15:17:20;6.70;74.50
76263;DHT22;65080;50.908;6.916;2023-02-24T15:19:49;6.70;74.50
76263;DHT22;65080;50.908;6.916;2023-02-24T15:22:24;6.70;74.50
76263;DHT22;65080;50.908;6.916;2023-02-24T15:24:54;6.80;74.60
76263;DHT22;65080;50.908;6.916;2023-02-24T15:27:26;6.80;74.50
76263;DHT22;65080;50.908;6.916;2023-02-24T15:30:00;6.80;74.40
76263;DHT22;65080;50.908;6.916;2023-02-24T15:32:31;6.80;74.40
76263;DHT22;65080;50.908;6.916;2023-02-24T15:35:01;6.80;74.60
76263;DHT22;65080;50.908;6.916;2023-02-24T15:37:37;6.80;74.70
76263;DHT22;65080;50.908;6.916;2023-02-24T15:40:16;6.80;74.60
76263;DHT22;65080;50.908;6.916;2023-02-24T15:42:50;6.70;74.60
76263;DHT22;65080;50.908;6.916;2023-02-24T15:45:25;6.70;74.60
76263;DHT22;65080;50.908;6.916;2023-02-24T15:47:57;6.70;74.70
76263;DHT22;65080;50.908;6.916;2023-02-24T15:50:26;6.70;74.90
76263;DHT22;65080;50.908;6.916;2023-02-24T15:52:58;6.70;74.90
76263;DHT22;65080;50.908;6.916;2023-02-24T15:55:27;6.70;75.10
76263;DHT22;65080;50.908;6.916;2023-02-24T15:57:58;6.80;75.20
76263;DHT22;65080;50.908;6.916;2023-02-24T16:00:28;6.80;74.90
76263;DHT22;65080;50.908;6.916;2023-02-24T16:02:57;6.70;74.90
76263;DHT22;65080;50.908;6.916;2023-02-24T16:05:25;6.70;75.00
76263;DHT22;65080;50.908;6.916;2023-02-24T16:07:54;6.70;75.00
76263;DHT22;65080;50.908;6.916;2023-02-24T16:10:25;6.80;75.10
76263;DHT22;65080;50.908;6.916;2023-02-24T16:12:55;6.80;75.10
76263;DHT22;65080;50.908;6.916;2023-02-24T16:15:26;6.80;75.00
76263;DHT22;65080;50.908;6.916;2023-02-24T16:17:56;6.70;75.00
76263;DHT22;65080;50.908;6.916;2023-02-24T16:20:26;6.80;75.10
76263;DHT22;65080;50.908;6.916;2023-02-24T16:22:59;6.80;75.20
76263;DHT22;65080;50.908;6.916;2023-02-24T16:25:33;6.80;75.30
76263;DHT22;65080;50.908;6.916;2023-02-24T16:28:03;6.80;75.20
76263;DHT22;65080;50.908;6.916;2023-02-24T16:30:31;6.80;75.30
76263;DHT22;65080;50.908;6.916;2023-02-24T16:33:02;6.80;75.30